sensor_id;sensor_type;location;lat;lon;timestamp;P1;durP1;ratioP1;P2;durP2;ratioP2
1346;SDS011;667;48.796;9.480;2023-03-23T00:02:23;5.20;;;4.70;;
1346;SDS011;667;48.796;9.480;2023-03-23T00:04:49;5.53;;;4.97;;
1346;SDS011;667;48.796;9.480;2023-03-23T00:07:15;6.15;;;5.55;;
1346;SDS011;667;48.796;9.480;2023-03-23T00:09:46;7.80;;;5.15;;
1346;SDS011;667;48.796;9.480;2023-03-23T00:12:22;5.30;;;4.20;;
1346;SDS011;667;48.796;9.480;2023-03-23T00:15:07;6.43;;;5.32;;
1346;SDS011;667;48.796;9.480;2023-03-23T00:17:37;4.93;;;4.40;;
1346;SDS011;667;48.796;9.480;2023-03-23T00:20:03;9.05;;;4.60;;
1346;SDS011;667;48.796;9.480;2023-03-23T00:22:30;4.50;;;4.10;;
1346;SDS011;667;48.796;9.480;2023-03-23T00:24:56;6.87;;;5.33;;
1346;SDS011;667;48.796;9.480;2023-03-23T00:27:22;8.10;;;5.03;;
1346;SDS011;667;48.796;9.480;2023-03-23T00:29:50;6.57;;;4.80;;
1346;SDS011;667;48.796;9.480;2023-03-23T00:32:20;5.43;;;4.93;;
1346;SDS011;667;48.796;9.480;2023-03-23T00:34:53;8.68;;;5.32;;
1346;SDS011;667;48.796;9.480;2023-03-23T00:37:20;5.32;;;4.60;;
1346;SDS011;667;48.796;9.480;2023-03-23T00:39:46;4.90;;;4.40;;
1346;SDS011;667;48.796;9.480;2023-03-23T00:42:12;5.00;;;4.50;;
1346;SDS011;667;48.796;9.480;2023-03-23T00:44:39;4.68;;;4.20;;
1346;SDS011;667;48.796;9.480;2023-03-23T00:47:05;5.37;;;4.70;;
1346;SDS011;667;48.796;9.480;2023-03-23T00:49:31;6.10;;;4.95;;
1346;SDS011;667;48.796;9.480;2023-03-23T00:51:59;7.55;;;5.22;;
1346;SDS011;667;48.796;9.480;2023-03-23T00:54:26;6.45;;;5.43;;
1346;SDS011;667;48.796;9.480;2023-03-23T00:56:52;7.00;;;5.63;;
1346;SDS011;667;48.796;9.480;2023-03-23T00:59:18;5.43;;;4.95;;
1346;SDS011;667;48.796;9.480;2023-03-23T01:01:44;5.55;;;5.00;;
1346;SDS011;667;48.796;9.480;2023-03-23T01:04:10;9.50;;;5.70;;
1346;SDS011;667;48.796;9.480;2023-03-23T01:06:38;5.20;;;4.70;;
1346;SDS011;667;48.796;9.480;2023-03-23T01:09:07;5.88;;;5.22;;
1346;SDS011;667;48.796;9.480;2023-03-23T01:11:41;6.63;;;4.50;;
1346;SDS011;667;48.796;9.480;2023-03-23T01:14:12;5.13;;;4.45;;
1346;SDS011;667;48.796;9.480;2023-03-23T01:16:40;5.40;;;4.50;;
1346;SDS011;667;48.796;9.480;2023-03-23T01:19:06;5.70;;;4.97;;
1346;SDS011;667;48.796;9.480;2023-03-23T01:21:31;4.60;;;4.07;;
1346;SDS011;667;48.796;9.480;2023-03-23T01:23:57;5.40;;;4.90;;
1346;SDS011;667;48.796;9.480;2023-03-23T01:26:23;5.47;;;4.77;;
1346;SDS011;667;48.796;9.480;2023-03-23T01:28:50;4.65;;;4.13;;
1346;SDS011;667;48.796;9.480;2023-03-23T01:31:18;4.15;;;3.85;;
1346;SDS011;667;48.796;9.480;2023-03-23T01:33:45;3.97;;;3.58;;
1346;SDS011;667;48.796;9.480;2023-03-23T01:36:15;5.40;;;4.30;;
1346;SDS011;667;48.796;9.480;2023-03-23T01:38:43;4.78;;;4.30;;
1346;SDS011;667;48.796;9.480;2023-03-23T01:41:10;7.63;;;3.95;;
1346;SDS011;667;48.796;9.480;2023-03-23T01:43:53;6.43;;;4.53;;
1346;SDS011;667;48.796;9.480;2023-03-23T01:46:19;4.55;;;4.10;;
1346;SDS011;667;48.796;9.480;2023-03-23T01:48:47;4.55;;;4.00;;
1346;SDS011;667;48.796;9.480;2023-03-23T01:51:15;3.70;;;3.30;;
1346;SDS011;667;48.796;9.480;2023-03-23T01:53:48;3.88;;;3.58;;
1346;SDS011;667;48.796;9.480;2023-03-23T01:56:29;5.50;;;4.68;;
1346;SDS011;667;48.796;9.480;2023-03-23T01:59:02;4.72;;;3.90;;
1346;SDS011;667;48.796;9.480;2023-03-23T02:01:28;4.10;;;3.70;;
1346;SDS011;667;48.796;9.480;2023-03-23T02:03:55;4.37;;;3.70;;
1346;SDS011;667;48.796;9.480;2023-03-23T02:06:23;4.15;;;3.78;;
1346;SDS011;667;48.796;9.480;2023-03-23T02:08:49;4.60;;;4.15;;
1346;SDS011;667;48.796;9.480;2023-03-23T02:11:17;4.55;;;3.70;;
1346;SDS011;667;48.796;9.480;2023-03-23T02:13:45;5.40;;;3.45;;
1346;SDS011;667;48.796;9.480;2023-03-23T02:16:14;4.30;;;3.35;;
1346;SDS011;667;48.796;9.480;2023-03-23T02:18:49;3.15;;;2.85;;
1346;SDS011;667;48.796;9.480;2023-03-23T02:27:03;3.30;;;2.75;;
1346;SDS011;667;48.796;9.480;2023-03-23T02:34:46;5.30;;;3.63;;
1346;SDS011;667;48.796;9.480;2023-03-23T02:37:21;4.63;;;3.15;;
1346;SDS011;667;48.796;9.480;2023-03-23T02:39:56;3.55;;;3.10;;
1346;SDS011;667;48.796;9.480;2023-03-23T02:42:39;4.07;;;2.90;;
1346;SDS011;667;48.796;9.480;2023-03-23T02:45:08;4.43;;;3.10;;
1346;SDS011;667;48.796;9.480;2023-03-23T02:47:37;11.65;;;3.53;;
1346;SDS011;667;48.796;9.480;2023-03-23T02:50:03;3.33;;;3.03;;
1346;SDS011;667;48.796;9.480;2023-03-23T02:52:32;3.22;;;2.90;;
1346;SDS011;667;48.796;9.480;2023-03-23T02:54:59;6.57;;;3.45;;
1346;SDS011;667;48.796;9.480;2023-03-23T02:57:26;4.00;;;3.60;;
1346;SDS011;667;48.796;9.480;2023-03-23T02:59:53;5.75;;;3.60;;
1346;SDS011;667;48.796;9.480;2023-03-23T03:02:21;3.97;;;3.60;;
1346;SDS011;667;48.796;9.480;2023-03-23T03:18:50;4.40;;;3.60;;
1346;SDS011;667;48.796;9.480;2023-03-23T03:21:20;4.68;;;3.10;;
1346;SDS011;667;48.796;9.480;2023-03-23T03:23:50;3.00;;;2.80;;
1346;SDS011;667;48.796;9.480;2023-03-23T03:26:22;3.78;;;2.60;;
1346;SDS011;667;48.796;9.480;2023-03-23T03:28:51;4.10;;;2.55;;
1346;SDS011;667;48.796;9.480;2023-03-23T03:31:18;2.95;;;2.65;;
1346;SDS011;667;48.796;9.480;2023-03-23T03:33:57;3.10;;;2.80;;
1346;SDS011;667;48.796;9.480;2023-03-23T03:36:26;3.30;;;2.90;;
1346;SDS011;667;48.796;9.480;2023-03-23T03:38:59;3.25;;;2.95;;
1346;SDS011;667;48.796;9.480;2023-03-23T03:41:30;3.80;;;3.13;;
1346;SDS011;667;48.796;9.480;2023-03-23T03:43:55;2.73;;;2.50;;
1346;SDS011;667;48.796;9.480;2023-03-23T03:46:21;3.00;;;2.57;;
1346;SDS011;667;48.796;9.480;2023-03-23T03:48:46;2.60;;;2.40;;
1346;SDS011;667;48.796;9.480;2023-03-23T03:51:12;3.00;;;2.23;;
1346;SDS011;667;48.796;9.480;2023-03-23T03:53:37;2.60;;;2.40;;
1346;SDS011;667;48.796;9.480;2023-03-23T03:56:03;2.57;;;2.33;;
1346;SDS011;667;48.796;9.480;2023-03-23T03:58:30;3.42;;;2.30;;
1346;SDS011;667;48.796;9.480;2023-03-23T04:00:57;3.40;;;2.30;;
1346;SDS011;667;48.796;9.480;2023-03-23T04:03:24;2.65;;;1.98;;
1346;SDS011;667;48.796;9.480;2023-03-23T04:05:50;2.42;;;2.22;;
1346;SDS011;667;48.796;9.480;2023-03-23T04:08:16;2.50;;;2.30;;
1346;SDS011;667;48.796;9.480;2023-03-23T04:10:42;6.18;;;2.63;;
1346;SDS011;667;48.796;9.480;2023-03-23T04:13:08;2.90;;;2.40;;
1346;SDS011;667;48.796;9.480;2023-03-23T04:15:33;9.13;;;2.13;;
1346;SDS011;667;48.796;9.480;2023-03-23T04:17:59;3.57;;;2.70;;
1346;SDS011;667;48.796;9.480;2023-03-23T04:20:25;3.80;;;2.20;;
1346;SDS011;667;48.796;9.480;2023-03-23T04:22:51;2.80;;;2.25;;
1346;SDS011;667;48.796;9.480;2023-03-23T04:25:19;2.35;;;2.15;;
1346;SDS011;667;48.796;9.480;2023-03-23T04:27:46;2.37;;;1.97;;
1346;SDS011;667;48.796;9.480;2023-03-23T04:30:17;4.32;;;2.33;;
1346;SDS011;667;48.796;9.480;2023-03-23T04:32:47;2.42;;;2.22;;
1346;SDS011;667;48.796;9.480;2023-03-23T04:35:20;3.55;;;2.30;;
1346;SDS011;667;48.796;9.480;2023-03-23T04:37:47;2.42;;;2.22;;
1346;SDS011;667;48.796;9.480;2023-03-23T04:40:13;3.38;;;2.15;;
1346;SDS011;667;48.796;9.480;2023-03-23T04:42:43;3.50;;;2.53;;
1346;SDS011;667;48.796;9.480;2023-03-23T04:45:14;2.53;;;2.30;;
1346;SDS011;667;48.796;9.480;2023-03-23T04:47:46;2.75;;;1.90;;
1346;SDS011;667;48.796;9.480;2023-03-23T04:50:18;3.75;;;2.10;;
1346;SDS011;667;48.796;9.480;2023-03-23T04:52:46;2.97;;;2.00;;
1346;SDS011;667;48.796;9.480;2023-03-23T04:55:12;2.63;;;1.80;;
1346;SDS011;667;48.796;9.480;2023-03-23T04:57:38;2.97;;;2.55;;
1346;SDS011;667;48.796;9.480;2023-03-23T05:00:05;2.90;;;2.53;;
1346;SDS011;667;48.796;9.480;2023-03-23T05:02:37;2.60;;;2.00;;
1346;SDS011;667;48.796;9.480;2023-03-23T05:05:05;2.90;;;2.50;;
1346;SDS011;667;48.796;9.480;2023-03-23T05:07:31;2.53;;;2.33;;
1346;SDS011;667;48.796;9.480;2023-03-23T05:09:57;2.53;;;1.90;;
1346;SDS011;667;48.796;9.480;2023-03-23T05:12:23;2.03;;;1.90;;
1346;SDS011;667;48.796;9.480;2023-03-23T05:14:48;2.67;;;2.00;;
1346;SDS011;667;48.796;9.480;2023-03-23T05:17:14;6.63;;;2.42;;
1346;SDS011;667;48.796;9.480;2023-03-23T05:19:42;3.70;;;2.10;;
1346;SDS011;667;48.796;9.480;2023-03-23T05:22:09;4.03;;;2.30;;
1346;SDS011;667;48.796;9.480;2023-03-23T05:24:37;2.30;;;2.10;;
1346;SDS011;667;48.796;9.480;2023-03-23T05:27:03;4.40;;;2.30;;
1346;SDS011;667;48.796;9.480;2023-03-23T05:29:28;4.20;;;2.20;;
1346;SDS011;667;48.796;9.480;2023-03-23T05:31:55;2.33;;;2.13;;
1346;SDS011;667;48.796;9.480;2023-03-23T05:34:25;2.33;;;2.13;;
1346;SDS011;667;48.796;9.480;2023-03-23T05:36:51;2.10;;;1.90;;
1346;SDS011;667;48.796;9.480;2023-03-23T05:39:18;2.97;;;1.92;;
1346;SDS011;667;48.796;9.480;2023-03-23T05:41:44;4.07;;;2.58;;
1346;SDS011;667;48.796;9.480;2023-03-23T05:44:09;2.27;;;2.07;;
1346;SDS011;667;48.796;9.480;2023-03-23T05:46:38;7.00;;;2.70;;
1346;SDS011;667;48.796;9.480;2023-03-23T05:49:04;2.42;;;2.00;;
1346;SDS011;667;48.796;9.480;2023-03-23T05:51:29;2.13;;;1.93;;
1346;SDS011;667;48.796;9.480;2023-03-23T05:53:55;1.87;;;1.70;;
1346;SDS011;667;48.796;9.480;2023-03-23T05:56:21;2.83;;;2.23;;
1346;SDS011;667;48.796;9.480;2023-03-23T05:58:47;2.20;;;2.00;;
1346;SDS011;667;48.796;9.480;2023-03-23T06:01:12;3.70;;;2.57;;
1346;SDS011;667;48.796;9.480;2023-03-23T06:03:38;2.05;;;1.85;;
1346;SDS011;667;48.796;9.480;2023-03-23T06:06:04;3.07;;;2.40;;
1346;SDS011;667;48.796;9.480;2023-03-23T06:08:30;3.60;;;2.13;;
1346;SDS011;667;48.796;9.480;2023-03-23T06:10:56;2.33;;;2.00;;
1346;SDS011;667;48.796;9.480;2023-03-23T06:13:22;2.27;;;2.10;;
1346;SDS011;667;48.796;9.480;2023-03-23T06:15:48;5.68;;;1.98;;
1346;SDS011;667;48.796;9.480;2023-03-23T06:18:14;2.97;;;2.00;;
1346;SDS011;667;48.796;9.480;2023-03-23T06:20:41;5.13;;;1.80;;
1346;SDS011;667;48.796;9.480;2023-03-23T06:23:09;2.15;;;1.88;;
1346;SDS011;667;48.796;9.480;2023-03-23T06:25:34;2.50;;;2.03;;
1346;SDS011;667;48.796;9.480;2023-03-23T06:28:00;2.50;;;2.10;;
1346;SDS011;667;48.796;9.480;2023-03-23T06:30:25;2.70;;;1.80;;
1346;SDS011;667;48.796;9.480;2023-03-23T06:32:52;2.33;;;2.13;;
1346;SDS011;667;48.796;9.480;2023-03-23T06:35:18;2.55;;;2.15;;
1346;SDS011;667;48.796;9.480;2023-03-23T06:37:44;4.50;;;2.50;;
1346;SDS011;667;48.796;9.480;2023-03-23T06:40:10;3.65;;;3.00;;
1346;SDS011;667;48.796;9.480;2023-03-23T06:42:36;4.97;;;2.97;;
1346;SDS011;667;48.796;9.480;2023-03-23T06:45:02;3.50;;;3.03;;
1346;SDS011;667;48.796;9.480;2023-03-23T06:47:29;3.63;;;3.30;;
1346;SDS011;667;48.796;9.480;2023-03-23T06:49:58;3.50;;;2.97;;
1346;SDS011;667;48.796;9.480;2023-03-23T06:52:26;4.18;;;3.72;;
1346;SDS011;667;48.796;9.480;2023-03-23T06:54:55;7.55;;;3.55;;
1346;SDS011;667;48.796;9.480;2023-03-23T06:57:20;5.30;;;3.63;;
1346;SDS011;667;48.796;9.480;2023-03-23T06:59:47;3.50;;;3.10;;
1346;SDS011;667;48.796;9.480;2023-03-23T07:02:13;3.17;;;2.88;;
1346;SDS011;667;48.796;9.480;2023-03-23T07:04:39;4.28;;;3.05;;
1346;SDS011;667;48.796;9.480;2023-03-23T07:07:07;5.65;;;3.20;;
1346;SDS011;667;48.796;9.480;2023-03-23T07:09:34;8.77;;;3.15;;
1346;SDS011;667;48.796;9.480;2023-03-23T07:12:00;5.10;;;3.70;;
1346;SDS011;667;48.796;9.480;2023-03-23T07:14:26;4.27;;;3.70;;
1346;SDS011;667;48.796;9.480;2023-03-23T07:16:51;4.60;;;3.97;;
1346;SDS011;667;48.796;9.480;2023-03-23T07:19:18;4.22;;;3.83;;
1346;SDS011;667;48.796;9.480;2023-03-23T07:21:44;4.73;;;4.00;;
1346;SDS011;667;48.796;9.480;2023-03-23T07:24:10;5.83;;;3.83;;
1346;SDS011;667;48.796;9.480;2023-03-23T07:26:38;5.30;;;4.90;;
1346;SDS011;667;48.796;9.480;2023-03-23T07:29:05;5.32;;;4.82;;
1346;SDS011;667;48.796;9.480;2023-03-23T07:31:31;8.17;;;5.80;;
1346;SDS011;667;48.796;9.480;2023-03-23T07:33:57;6.87;;;5.83;;
1346;SDS011;667;48.796;9.480;2023-03-23T07:36:22;8.73;;;5.77;;
1346;SDS011;667;48.796;9.480;2023-03-23T07:38:48;5.87;;;5.37;;
1346;SDS011;667;48.796;9.480;2023-03-23T07:41:14;6.43;;;5.40;;
1346;SDS011;667;48.796;9.480;2023-03-23T07:43:39;10.40;;;6.00;;
1346;SDS011;667;48.796;9.480;2023-03-23T07:46:06;7.13;;;5.75;;
1346;SDS011;667;48.796;9.480;2023-03-23T07:48:31;5.70;;;5.20;;
1346;SDS011;667;48.796;9.480;2023-03-23T07:50:58;5.50;;;5.00;;
1346;SDS011;667;48.796;9.480;2023-03-23T07:53:24;6.13;;;5.53;;
1346;SDS011;667;48.796;9.480;2023-03-23T07:55:50;6.07;;;5.50;;
1346;SDS011;667;48.796;9.480;2023-03-23T07:58:15;6.00;;;5.40;;
1346;SDS011;667;48.796;9.480;2023-03-23T08:00:44;7.05;;;5.85;;
1346;SDS011;667;48.796;9.480;2023-03-23T08:03:14;7.60;;;6.70;;
1346;SDS011;667;48.796;9.480;2023-03-23T08:05:40;7.57;;;6.75;;
1346;SDS011;667;48.796;9.480;2023-03-23T08:08:07;7.13;;;6.43;;
1346;SDS011;667;48.796;9.480;2023-03-23T08:10:34;9.00;;;6.97;;
1346;SDS011;667;48.796;9.480;2023-03-23T08:13:00;8.30;;;6.50;;
1346;SDS011;667;48.796;9.480;2023-03-23T08:15:26;6.27;;;5.57;;
1346;SDS011;667;48.796;9.480;2023-03-23T08:17:53;11.57;;;5.60;;
1346;SDS011;667;48.796;9.480;2023-03-23T08:20:19;7.88;;;5.28;;
1346;SDS011;667;48.796;9.480;2023-03-23T08:22:52;4.13;;;3.75;;
1346;SDS011;667;48.796;9.480;2023-03-23T08:25:19;8.38;;;3.55;;
1346;SDS011;667;48.796;9.480;2023-03-23T08:27:45;2.83;;;2.63;;
1346;SDS011;667;48.796;9.480;2023-03-23T08:30:12;2.20;;;2.10;;
1346;SDS011;667;48.796;9.480;2023-03-23T08:32:40;4.63;;;2.03;;
1346;SDS011;667;48.796;9.480;2023-03-23T08:35:07;2.17;;;1.98;;
1346;SDS011;667;48.796;9.480;2023-03-23T08:37:37;2.88;;;1.90;;
1346;SDS011;667;48.796;9.480;2023-03-23T08:40:03;2.23;;;2.03;;
1346;SDS011;667;48.796;9.480;2023-03-23T08:42:36;3.30;;;2.67;;
1346;SDS011;667;48.796;9.480;2023-03-23T08:45:04;2.83;;;2.20;;
1346;SDS011;667;48.796;9.480;2023-03-23T08:47:32;2.63;;;2.43;;
1346;SDS011;667;48.796;9.480;2023-03-23T08:49:58;2.50;;;2.30;;
1346;SDS011;667;48.796;9.480;2023-03-23T08:52:24;2.17;;;1.97;;
1346;SDS011;667;48.796;9.480;2023-03-23T08:54:50;2.47;;;1.67;;
1346;SDS011;667;48.796;9.480;2023-03-23T08:57:16;3.50;;;2.20;;
1346;SDS011;667;48.796;9.480;2023-03-23T08:59:43;3.03;;;2.00;;
1346;SDS011;667;48.796;9.480;2023-03-23T09:02:12;2.60;;;2.40;;
1346;SDS011;667;48.796;9.480;2023-03-23T09:04:38;3.60;;;2.40;;
1346;SDS011;667;48.796;9.480;2023-03-23T09:07:07;5.23;;;2.17;;
1346;SDS011;667;48.796;9.480;2023-03-23T09:09:37;2.57;;;2.37;;
1346;SDS011;667;48.796;9.480;2023-03-23T09:12:05;3.40;;;2.27;;
1346;SDS011;667;48.796;9.480;2023-03-23T09:14:31;6.27;;;2.27;;
1346;SDS011;667;48.796;9.480;2023-03-23T09:16:57;3.80;;;2.50;;
1346;SDS011;667;48.796;9.480;2023-03-23T09:19:22;2.57;;;2.37;;
1346;SDS011;667;48.796;9.480;2023-03-23T09:21:48;2.57;;;2.37;;
1346;SDS011;667;48.796;9.480;2023-03-23T09:24:14;3.27;;;2.40;;
1346;SDS011;667;48.796;9.480;2023-03-23T09:26:40;2.47;;;2.10;;
1346;SDS011;667;48.796;9.480;2023-03-23T09:29:06;2.50;;;2.30;;
1346;SDS011;667;48.796;9.480;2023-03-23T09:31:31;2.57;;;2.20;;
1346;SDS011;667;48.796;9.480;2023-03-23T09:33:57;2.90;;;2.20;;
1346;SDS011;667;48.796;9.480;2023-03-23T09:36:24;2.83;;;2.07;;
1346;SDS011;667;48.796;9.480;2023-03-23T09:38:56;2.80;;;2.33;;
1346;SDS011;667;48.796;9.480;2023-03-23T09:44:37;2.87;;;1.97;;
1346;SDS011;667;48.796;9.480;2023-03-23T09:47:11;2.37;;;2.03;;
1346;SDS011;667;48.796;9.480;2023-03-23T09:49:48;2.93;;;2.20;;
1346;SDS011;667;48.796;9.480;2023-03-23T09:52:17;3.00;;;2.57;;
1346;SDS011;667;48.796;9.480;2023-03-23T09:54:50;2.50;;;2.10;;
1346;SDS011;667;48.796;9.480;2023-03-23T09:57:22;2.43;;;2.23;;
1346;SDS011;667;48.796;9.480;2023-03-23T10:02:55;2.10;;;1.97;;
1346;SDS011;667;48.796;9.480;2023-03-23T10:05:31;2.33;;;2.10;;
1346;SDS011;667;48.796;9.480;2023-03-23T10:08:08;2.33;;;2.10;;
1346;SDS011;667;48.796;9.480;2023-03-23T10:10:50;1.80;;;1.70;;
1346;SDS011;667;48.796;9.480;2023-03-23T10:16:10;2.67;;;1.70;;
1346;SDS011;667;48.796;9.480;2023-03-23T10:21:11;2.40;;;1.67;;
1346;SDS011;667;48.796;9.480;2023-03-23T10:23:56;4.67;;;2.10;;
1346;SDS011;667;48.796;9.480;2023-03-23T10:29:20;1.80;;;1.70;;
1346;SDS011;667;48.796;9.480;2023-03-23T10:31:51;2.00;;;1.80;;
1346;SDS011;667;48.796;9.480;2023-03-23T10:39:26;3.00;;;2.27;;
1346;SDS011;667;48.796;9.480;2023-03-23T10:41:56;2.47;;;1.80;;
1346;SDS011;667;48.796;9.480;2023-03-23T10:44:27;1.60;;;1.50;;
1346;SDS011;667;48.796;9.480;2023-03-23T10:46:58;4.93;;;2.80;;
1346;SDS011;667;48.796;9.480;2023-03-23T10:49:34;1.80;;;1.70;;
1346;SDS011;667;48.796;9.480;2023-03-23T10:57:36;4.40;;;2.00;;
1346;SDS011;667;48.796;9.480;2023-03-23T11:02:37;2.10;;;1.87;;
1346;SDS011;667;48.796;9.480;2023-03-23T11:05:15;2.70;;;2.50;;
1346;SDS011;667;48.796;9.480;2023-03-23T11:07:53;2.47;;;2.13;;
1346;SDS011;667;48.796;9.480;2023-03-23T11:10:21;2.17;;;2.00;;
1346;SDS011;667;48.796;9.480;2023-03-23T11:12:52;2.67;;;2.10;;
1346;SDS011;667;48.796;9.480;2023-03-23T11:15:32;2.10;;;1.77;;
1346;SDS011;667;48.796;9.480;2023-03-23T11:18:03;2.30;;;2.07;;
1346;SDS011;667;48.796;9.480;2023-03-23T11:20:36;2.60;;;2.23;;
1346;SDS011;667;48.796;9.480;2023-03-23T11:23:21;2.50;;;2.03;;
1346;SDS011;667;48.796;9.480;2023-03-23T11:31:38;3.00;;;2.60;;
1346;SDS011;667;48.796;9.480;2023-03-23T11:36:40;5.10;;;2.70;;
1346;SDS011;667;48.796;9.480;2023-03-23T11:39:19;2.33;;;2.13;;
1346;SDS011;667;48.796;9.480;2023-03-23T11:41:53;5.87;;;3.23;;
1346;SDS011;667;48.796;9.480;2023-03-23T11:44:23;3.40;;;2.30;;
1346;SDS011;667;48.796;9.480;2023-03-23T11:46:59;3.30;;;2.70;;
1346;SDS011;667;48.796;9.480;2023-03-23T11:55:11;2.73;;;2.50;;
1346;SDS011;667;48.796;9.480;2023-03-23T11:57:37;2.27;;;2.00;;
1346;SDS011;667;48.796;9.480;2023-03-23T12:00:14;2.37;;;2.17;;
1346;SDS011;667;48.796;9.480;2023-03-23T12:16:00;2.43;;;2.23;;
1346;SDS011;667;48.796;9.480;2023-03-23T12:21:25;2.20;;;1.83;;
1346;SDS011;667;48.796;9.480;2023-03-23T12:24:36;4.23;;;2.40;;
1346;SDS011;667;48.796;9.480;2023-03-23T12:32:51;2.10;;;1.80;;
1346;SDS011;667;48.796;9.480;2023-03-23T12:38:21;3.10;;;2.33;;
1346;SDS011;667;48.796;9.480;2023-03-23T12:43:21;2.27;;;2.10;;
1346;SDS011;667;48.796;9.480;2023-03-23T12:46:07;2.40;;;2.17;;
1346;SDS011;667;48.796;9.480;2023-03-23T12:48:39;2.40;;;2.20;;
1346;SDS011;667;48.796;9.480;2023-03-23T13:01:58;2.60;;;2.27;;
1346;SDS011;667;48.796;9.480;2023-03-23T13:04:31;3.10;;;2.00;;
1346;SDS011;667;48.796;9.480;2023-03-23T13:07:02;2.30;;;2.07;;
1346;SDS011;667;48.796;9.480;2023-03-23T13:12:01;2.40;;;2.20;;
1346;SDS011;667;48.796;9.480;2023-03-23T13:14:44;3.00;;;2.23;;
1346;SDS011;667;48.796;9.480;2023-03-23T13:23:47;2.53;;;2.33;;
1346;SDS011;667;48.796;9.480;2023-03-23T13:26:18;2.17;;;1.97;;
1346;SDS011;667;48.796;9.480;2023-03-23T13:31:22;2.97;;;2.20;;
1346;SDS011;667;48.796;9.480;2023-03-23T13:36:40;2.30;;;2.10;;
1346;SDS011;667;48.796;9.480;2023-03-23T13:39:18;4.70;;;2.73;;
1346;SDS011;667;48.796;9.480;2023-03-23T13:41:58;6.70;;;2.80;;
1346;SDS011;667;48.796;9.480;2023-03-23T13:50:00;2.40;;;2.20;;
1346;SDS011;667;48.796;9.480;2023-03-23T13:57:54;3.40;;;2.37;;
1346;SDS011;667;48.796;9.480;2023-03-23T14:05:38;3.83;;;3.53;;
1346;SDS011;667;48.796;9.480;2023-03-23T14:10:51;3.33;;;2.43;;
1346;SDS011;667;48.796;9.480;2023-03-23T14:19:03;4.97;;;2.60;;
1346;SDS011;667;48.796;9.480;2023-03-23T14:21:39;4.37;;;2.57;;
1346;SDS011;667;48.796;9.480;2023-03-23T14:24:10;9.80;;;2.60;;
1346;SDS011;667;48.796;9.480;2023-03-23T14:26:35;3.87;;;2.27;;
1346;SDS011;667;48.796;9.480;2023-03-23T14:29:02;3.20;;;2.63;;
1346;SDS011;667;48.796;9.480;2023-03-23T14:31:29;3.70;;;2.80;;
1346;SDS011;667;48.796;9.480;2023-03-23T14:33:55;3.60;;;2.80;;
1346;SDS011;667;48.796;9.480;2023-03-23T14:36:29;2.47;;;2.27;;
1346;SDS011;667;48.796;9.480;2023-03-23T14:39:04;3.33;;;3.03;;
1346;SDS011;667;48.796;9.480;2023-03-23T14:41:31;4.90;;;2.60;;
1346;SDS011;667;48.796;9.480;2023-03-23T14:43:58;3.30;;;2.43;;
1346;SDS011;667;48.796;9.480;2023-03-23T14:46:26;1.97;;;1.80;;
1346;SDS011;667;48.796;9.480;2023-03-23T14:48:52;3.50;;;2.30;;
1346;SDS011;667;48.796;9.480;2023-03-23T14:51:19;4.00;;;2.30;;
1346;SDS011;667;48.796;9.480;2023-03-23T14:53:46;3.17;;;2.80;;
1346;SDS011;667;48.796;9.480;2023-03-23T14:56:17;2.00;;;1.90;;
1346;SDS011;667;48.796;9.480;2023-03-23T14:58:47;2.43;;;2.20;;
1346;SDS011;667;48.796;9.480;2023-03-23T15:01:17;3.30;;;2.47;;
1346;SDS011;667;48.796;9.480;2023-03-23T15:03:52;4.00;;;2.80;;
1346;SDS011;667;48.796;9.480;2023-03-23T15:06:19;3.00;;;2.70;;
1346;SDS011;667;48.796;9.480;2023-03-23T15:08:47;3.03;;;2.70;;
1346;SDS011;667;48.796;9.480;2023-03-23T15:13:47;2.33;;;2.13;;
1346;SDS011;667;48.796;9.480;2023-03-23T15:16:23;3.43;;;2.20;;
1346;SDS011;667;48.796;9.480;2023-03-23T15:21:29;6.27;;;2.33;;
1346;SDS011;667;48.796;9.480;2023-03-23T15:23:57;3.17;;;2.50;;
1346;SDS011;667;48.796;9.480;2023-03-23T15:26:25;3.40;;;2.67;;
1346;SDS011;667;48.796;9.480;2023-03-23T15:31:47;2.40;;;2.20;;
1346;SDS011;667;48.796;9.480;2023-03-23T15:34:24;2.70;;;2.50;;
1346;SDS011;667;48.796;9.480;2023-03-23T15:36:55;2.70;;;2.50;;
1346;SDS011;667;48.796;9.480;2023-03-23T15:39:26;2.90;;;2.70;;
1346;SDS011;667;48.796;9.480;2023-03-23T15:41:53;3.20;;;2.50;;
1346;SDS011;667;48.796;9.480;2023-03-23T15:44:30;3.97;;;2.63;;
1346;SDS011;667;48.796;9.480;2023-03-23T15:47:13;3.50;;;2.10;;
1346;SDS011;667;48.796;9.480;2023-03-23T15:49:41;2.97;;;2.23;;
1346;SDS011;667;48.796;9.480;2023-03-23T15:52:09;3.10;;;2.80;;
1346;SDS011;667;48.796;9.480;2023-03-23T15:54:36;4.13;;;2.77;;
1346;SDS011;667;48.796;9.480;2023-03-23T15:57:02;2.63;;;2.43;;
1346;SDS011;667;48.796;9.480;2023-03-23T15:59:28;2.50;;;2.30;;
1346;SDS011;667;48.796;9.480;2023-03-23T16:01:54;2.40;;;2.20;;
1346;SDS011;667;48.796;9.480;2023-03-23T16:04:20;2.50;;;2.30;;
1346;SDS011;667;48.796;9.480;2023-03-23T16:06:46;2.53;;;2.33;;
1346;SDS011;667;48.796;9.480;2023-03-23T16:09:13;2.70;;;2.50;;
1346;SDS011;667;48.796;9.480;2023-03-23T16:11:40;3.03;;;2.73;;
1346;SDS011;667;48.796;9.480;2023-03-23T16:14:06;2.80;;;2.50;;
1346;SDS011;667;48.796;9.480;2023-03-23T16:16:40;2.50;;;2.30;;
1346;SDS011;667;48.796;9.480;2023-03-23T16:19:07;4.40;;;2.80;;
1346;SDS011;667;48.796;9.480;2023-03-23T16:21:33;2.40;;;2.20;;
1346;SDS011;667;48.796;9.480;2023-03-23T16:23:59;2.40;;;2.20;;
1346;SDS011;667;48.796;9.480;2023-03-23T16:26:25;2.53;;;2.33;;
1346;SDS011;667;48.796;9.480;2023-03-23T16:28:51;2.83;;;2.40;;
1346;SDS011;667;48.796;9.480;2023-03-23T16:31:17;2.60;;;2.40;;
1346;SDS011;667;48.796;9.480;2023-03-23T16:33:43;3.23;;;2.93;;
1346;SDS011;667;48.796;9.480;2023-03-23T16:36:13;3.70;;;2.87;;
1346;SDS011;667;48.796;9.480;2023-03-23T16:38:39;2.80;;;2.60;;
1346;SDS011;667;48.796;9.480;2023-03-23T16:41:05;2.30;;;2.10;;
1346;SDS011;667;48.796;9.480;2023-03-23T16:43:32;4.37;;;2.50;;
1346;SDS011;667;48.796;9.480;2023-03-23T16:45:58;3.10;;;2.57;;
1346;SDS011;667;48.796;9.480;2023-03-23T16:48:24;2.63;;;2.43;;
1346;SDS011;667;48.796;9.480;2023-03-23T16:50:50;2.87;;;2.67;;
1346;SDS011;667;48.796;9.480;2023-03-23T16:53:18;2.37;;;2.10;;
1346;SDS011;667;48.796;9.480;2023-03-23T16:55:44;3.43;;;2.60;;
1346;SDS011;667;48.796;9.480;2023-03-23T16:58:12;2.73;;;2.47;;
1346;SDS011;667;48.796;9.480;2023-03-23T17:00:39;2.60;;;2.37;;
1346;SDS011;667;48.796;9.480;2023-03-23T17:03:05;2.30;;;2.10;;
1346;SDS011;667;48.796;9.480;2023-03-23T17:05:31;2.77;;;2.40;;
1346;SDS011;667;48.796;9.480;2023-03-23T17:07:59;2.80;;;2.60;;
1346;SDS011;667;48.796;9.480;2023-03-23T17:10:25;3.20;;;2.30;;
1346;SDS011;667;48.796;9.480;2023-03-23T17:12:52;3.50;;;2.30;;
1346;SDS011;667;48.796;9.480;2023-03-23T17:15:18;2.60;;;2.30;;
1346;SDS011;667;48.796;9.480;2023-03-23T17:17:44;3.53;;;2.70;;
1346;SDS011;667;48.796;9.480;2023-03-23T17:20:10;2.30;;;2.10;;
1346;SDS011;667;48.796;9.480;2023-03-23T17:22:37;3.03;;;2.70;;
1346;SDS011;667;48.796;9.480;2023-03-23T17:25:04;3.00;;;2.70;;
1346;SDS011;667;48.796;9.480;2023-03-23T17:27:31;2.60;;;2.40;;
1346;SDS011;667;48.796;9.480;2023-03-23T17:29:57;2.93;;;2.60;;
1346;SDS011;667;48.796;9.480;2023-03-23T17:32:22;2.67;;;2.47;;
1346;SDS011;667;48.796;9.480;2023-03-23T17:34:49;5.20;;;2.30;;
1346;SDS011;667;48.796;9.480;2023-03-23T17:37:15;2.50;;;2.23;;
1346;SDS011;667;48.796;9.480;2023-03-23T17:39:43;2.47;;;2.27;;
1346;SDS011;667;48.796;9.480;2023-03-23T17:42:08;3.80;;;2.73;;
1346;SDS011;667;48.796;9.480;2023-03-23T17:44:34;3.70;;;2.70;;
1346;SDS011;667;48.796;9.480;2023-03-23T17:47:00;2.57;;;2.37;;
1346;SDS011;667;48.796;9.480;2023-03-23T17:49:26;2.50;;;2.30;;
1346;SDS011;667;48.796;9.480;2023-03-23T17:51:54;2.90;;;2.63;;
1346;SDS011;667;48.796;9.480;2023-03-23T17:54:21;3.10;;;2.80;;
1346;SDS011;667;48.796;9.480;2023-03-23T17:56:49;5.17;;;2.93;;
1346;SDS011;667;48.796;9.480;2023-03-23T17:59:15;4.13;;;3.73;;
1346;SDS011;667;48.796;9.480;2023-03-23T18:01:41;3.87;;;3.47;;
1346;SDS011;667;48.796;9.480;2023-03-23T18:04:06;5.67;;;3.50;;
1346;SDS011;667;48.796;9.480;2023-03-23T18:06:32;3.00;;;2.77;;
1346;SDS011;667;48.796;9.480;2023-03-23T18:08:58;2.80;;;2.30;;
1346;SDS011;667;48.796;9.480;2023-03-23T18:11:23;2.63;;;2.43;;